createdAt,value
2023-05-05T00:00:43.105Z,95343.00
2023-05-05T00:01:43.164Z,95345.00
2023-05-05T00:02:43.293Z,95343.00
2023-05-05T00:03:43.382Z,95343.00
2023-05-05T00:04:43.362Z,95340.00
2023-05-05T00:05:43.429Z,95340.00
2023-05-05T00:06:43.431Z,95340.00
2023-05-05T00:07:43.753Z,95338.00
2023-05-05T00:08:43.559Z,95340.00
2023-05-05T00:09:43.603Z,95338.00
2023-05-05T00:10:43.711Z,95338.00
2023-05-05T00:11:43.738Z,95338.00
2023-05-05T00:12:43.839Z,95338.00
2023-05-05T00:13:43.871Z,95338.00
2023-05-05T00:14:43.902Z,95336.00
2023-05-05T00:15:43.954Z,95334.00
2023-05-05T00:16:43.979Z,95336.00
2023-05-05T00:17:44.057Z,95336.00
2023-05-05T00:18:44.088Z,95338.00
2023-05-05T00:19:44.148Z,95340.00
2023-05-05T00:20:44.172Z,95336.00
2023-05-05T00:21:44.195Z,95336.00
2023-05-05T00:22:44.780Z,95338.00
2023-05-05T00:23:44.308Z,95338.00
2023-05-05T00:24:44.372Z,95338.00
2023-05-05T00:25:44.436Z,95340.00
2023-05-05T00:26:44.433Z,95340.00
2023-05-05T00:27:44.495Z,95340.00
2023-05-05T00:28:44.528Z,95338.00
2023-05-05T00:29:44.588Z,95336.00
2023-05-05T00:30:44.643Z,95338.00
2023-05-05T00:31:44.736Z,95338.00
2023-05-05T00:32:44.755Z,95334.00
2023-05-05T00:33:44.792Z,95336.00
2023-05-05T00:34:44.862Z,95340.00
2023-05-05T00:35:44.877Z,95338.00
2023-05-05T00:36:44.913Z,95342.00
2023-05-05T00:37:44.991Z,95340.00
2023-05-05T00:38:44.994Z,95338.00
2023-05-05T00:39:45.043Z,95340.00
2023-05-05T00:40:45.116Z,95340.00
2023-05-05T00:41:45.160Z,95342.00
2023-05-05T00:42:45.231Z,95342.00
2023-05-05T00:43:45.280Z,95342.00
2023-05-05T00:44:45.343Z,95343.00
2023-05-05T00:45:45.385Z,95343.00
2023-05-05T00:46:45.471Z,95345.00
2023-05-05T00:47:45.558Z,95343.00
2023-05-05T00:48:45.546Z,95345.00
2023-05-05T00:49:45.623Z,95345.00
2023-05-05T00:50:45.693Z,95343.00
2023-05-05T00:51:45.745Z,95338.00
2023-05-05T00:52:45.802Z,95342.00
2023-05-05T00:53:45.851Z,95343.00
2023-05-05T00:54:45.894Z,95338.00
2023-05-05T00:55:45.977Z,95338.00
2023-05-05T00:56:46.041Z,95340.00
2023-05-05T00:57:46.098Z,95340.00
2023-05-05T00:58:46.110Z,95340.00
2023-05-05T00:59:46.207Z,95342.00
2023-05-05T01:00:46.225Z,95342.00
2023-05-05T01:01:46.414Z,95342.00
2023-05-05T01:02:46.410Z,95342.00
2023-05-05T01:03:46.469Z,95338.00
2023-05-05T01:04:46.439Z,95340.00
2023-05-05T01:05:46.505Z,95342.00
2023-05-05T01:06:46.529Z,95336.00
2023-05-05T01:07:46.564Z,95338.00
2023-05-05T01:08:46.626Z,95334.00
2023-05-05T01:09:46.686Z,95334.00
2023-05-05T01:10:46.748Z,95334.00
2023-05-05T01:11:46.794Z,95336.00
2023-05-05T01:12:46.921Z,95336.00
2023-05-05T01:13:46.927Z,95336.00
2023-05-05T01:14:46.989Z,95338.00
2023-05-05T01:15:47.034Z,95336.00
2023-05-05T01:16:47.109Z,95334.00
2023-05-05T01:17:47.224Z,95336.00
2023-05-05T01:18:47.218Z,95336.00
2023-05-05T01:19:47.264Z,95338.00
2023-05-05T01:20:47.336Z,95336.00
2023-05-05T01:21:47.379Z,95336.00
2023-05-05T01:22:47.457Z,95336.00
2023-05-05T01:23:47.497Z,95336.00
2023-05-05T01:24:47.575Z,95338.00
2023-05-05T01:25:47.611Z,95340.00
2023-05-05T01:26:47.684Z,95342.00
2023-05-05T01:27:47.742Z,95342.00
2023-05-05T01:28:47.777Z,95338.00
2023-05-05T01:29:47.847Z,95338.00
2023-05-05T01:30:47.894Z,95340.00
2023-05-05T01:31:47.961Z,95340.00
2023-05-05T01:32:48.047Z,95340.00
2023-05-05T01:33:48.041Z,95338.00
2023-05-05T01:34:48.089Z,95338.00
2023-05-05T01:35:48.126Z,95340.00
2023-05-05T01:36:48.207Z,95342.00
2023-05-05T01:37:48.274Z,95343.00
2023-05-05T01:38:48.275Z,95342.00
2023-05-05T01:39:48.362Z,95345.00
2023-05-05T01:40:48.428Z,95343.00
2023-05-05T01:41:48.478Z,95343.00
2023-05-05T01:42:48.507Z,95343.00
2023-05-05T01:43:48.589Z,95345.00
2023-05-05T01:44:48.665Z,95345.00
2023-05-05T01:45:48.732Z,95345.00
2023-05-05T01:46:48.724Z,95345.00
2023-05-05T01:47:48.808Z,95345.00
2023-05-05T01:48:48.871Z,95347.00
2023-05-05T01:49:48.914Z,95349.00
2023-05-05T01:50:48.945Z,95347.00
2023-05-05T01:51:48.985Z,95347.00
2023-05-05T01:52:49.068Z,95345.00
2023-05-05T01:53:49.141Z,95342.00
2023-05-05T01:54:49.205Z,95342.00
2023-05-05T01:55:49.261Z,95343.00
2023-05-05T01:56:49.340Z,95345.00
2023-05-05T01:57:49.381Z,95347.00
2023-05-05T01:58:49.416Z,95349.00
2023-05-05T01:59:49.493Z,95351.00
2023-05-05T02:00:49.570Z,95355.00
2023-05-05T02:01:49.618Z,95355.00
2023-05-05T02:02:49.769Z,95351.00
2023-05-05T02:03:49.703Z,95349.00
2023-05-05T02:04:49.762Z,95347.00
2023-05-05T02:05:49.846Z,95347.00
2023-05-05T02:06:49.922Z,95347.00
2023-05-05T02:07:49.986Z,95349.00
2023-05-05T02:08:50.083Z,95351.00
2023-05-05T02:09:50.122Z,95355.00
2023-05-05T02:10:50.133Z,95355.00
2023-05-05T02:11:50.221Z,95361.00
2023-05-05T02:12:50.294Z,95355.00
2023-05-05T02:13:50.380Z,95357.00
2023-05-05T02:14:50.335Z,95359.00
2023-05-05T02:15:50.426Z,95359.00
2023-05-05T02:16:50.447Z,95361.00
2023-05-05T02:17:50.433Z,95361.00
2023-05-05T02:18:50.501Z,95363.00
2023-05-05T02:19:50.515Z,95363.00
2023-05-05T02:20:50.589Z,95359.00
2023-05-05T02:21:50.630Z,95361.00
2023-05-05T02:22:50.669Z,95361.00
2023-05-05T02:23:50.757Z,95363.00
2023-05-05T02:24:50.786Z,95363.00
2023-05-05T02:25:50.865Z,95365.00
2023-05-05T02:26:50.909Z,95363.00
2023-05-05T02:27:50.949Z,95361.00
2023-05-05T02:28:50.990Z,95363.00
2023-05-05T02:29:51.002Z,95361.00
2023-05-05T02:30:51.078Z,95365.00
2023-05-05T02:31:51.181Z,95365.00
2023-05-05T02:32:51.293Z,95361.00
2023-05-05T02:33:51.197Z,95363.00
2023-05-05T02:34:51.275Z,95363.00
2023-05-05T02:35:51.305Z,95363.00
2023-05-05T02:36:51.355Z,95361.00
2023-05-05T02:37:51.408Z,95363.00
2023-05-05T02:38:51.441Z,95365.00
2023-05-05T02:39:51.472Z,95365.00
2023-05-05T02:40:51.517Z,95367.00
2023-05-05T02:41:51.563Z,95371.00
2023-05-05T02:42:51.673Z,95369.00
2023-05-05T02:43:51.635Z,95369.00
2023-05-05T02:44:51.642Z,95369.00
2023-05-05T02:45:51.717Z,95369.00
2023-05-05T02:46:51.802Z,95371.00
2023-05-05T02:47:51.822Z,95373.00
2023-05-05T02:48:51.813Z,95373.00
2023-05-05T02:49:51.852Z,95373.00
2023-05-05T02:50:51.884Z,95371.00
2023-05-05T02:51:52.082Z,95375.00
2023-05-05T02:52:51.970Z,95371.00
2023-05-05T02:53:52.050Z,95375.00
2023-05-05T02:54:52.096Z,95375.00
2023-05-05T02:55:52.131Z,95373.00
2023-05-05T02:56:52.220Z,95373.00
2023-05-05T02:57:52.250Z,95373.00
2023-05-05T02:58:52.291Z,95373.00
2023-05-05T02:59:52.339Z,95371.00
2023-05-05T03:00:52.342Z,95371.00
2023-05-05T03:01:52.521Z,95365.00
2023-05-05T03:02:52.476Z,95373.00
2023-05-05T03:03:52.652Z,95371.00
2023-05-05T03:04:52.466Z,95371.00
2023-05-05T03:05:52.546Z,95375.00
2023-05-05T03:06:52.591Z,95373.00
2023-05-05T03:07:52.645Z,95373.00
2023-05-05T03:08:52.681Z,95371.00
2023-05-05T03:09:52.633Z,95375.00
2023-05-05T03:10:52.668Z,95375.00
2023-05-05T03:11:52.673Z,95371.00
2023-05-05T03:12:52.783Z,95369.00
2023-05-05T03:13:52.665Z,95369.00
2023-05-05T03:14:52.705Z,95369.00
2023-05-05T03:15:52.742Z,95369.00
2023-05-05T03:16:52.705Z,95371.00
2023-05-05T03:17:52.819Z,95371.00
2023-05-05T03:18:52.694Z,95371.00
2023-05-05T03:19:52.747Z,95373.00
2023-05-05T03:20:52.741Z,95373.00
2023-05-05T03:21:52.712Z,95373.00
2023-05-05T03:22:52.752Z,95373.00
2023-05-05T03:23:52.833Z,95369.00
2023-05-05T03:24:52.764Z,95369.00
2023-05-05T03:25:52.772Z,95369.00
2023-05-05T03:26:52.803Z,95369.00
2023-05-05T03:27:52.782Z,95371.00
2023-05-05T03:28:52.807Z,95369.00
2023-05-05T03:29:52.793Z,95367.00
2023-05-05T03:30:52.812Z,95371.00
2023-05-05T03:31:52.839Z,95373.00
2023-05-05T03:32:52.825Z,95373.00
2023-05-05T03:33:52.827Z,95375.00
2023-05-05T03:34:52.820Z,95373.00
2023-05-05T03:35:52.794Z,95371.00
2023-05-05T03:36:52.850Z,95373.00
2023-05-05T03:37:52.857Z,95373.00
2023-05-05T03:38:52.881Z,95373.00
2023-05-05T03:39:52.892Z,95371.00
2023-05-05T03:40:52.862Z,95373.00
2023-05-05T03:41:52.882Z,95375.00
2023-05-05T03:42:53.331Z,95375.00
2023-05-05T03:43:52.866Z,95375.00
2023-05-05T03:44:52.846Z,95375.00
2023-05-05T03:45:52.916Z,95375.00
2023-05-05T03:46:52.872Z,95371.00
2023-05-05T03:47:52.932Z,95373.00
2023-05-05T03:48:52.886Z,95371.00
2023-05-05T03:49:52.851Z,95373.00
2023-05-05T03:50:52.861Z,95373.00
2023-05-05T03:51:52.876Z,95373.00
2023-05-05T03:52:53.325Z,95371.00
2023-05-05T03:53:52.874Z,95371.00
2023-05-05T03:54:52.862Z,95373.00
2023-05-05T03:55:52.879Z,95373.00
2023-05-05T03:56:52.851Z,95371.00
2023-05-05T03:57:52.851Z,95371.00
2023-05-05T03:58:52.818Z,95369.00
2023-05-05T03:59:52.824Z,95367.00
2023-05-05T04:00:52.859Z,95367.00
2023-05-05T04:01:52.816Z,95365.00
2023-05-05T04:02:52.894Z,95367.00
2023-05-05T04:03:52.909Z,95369.00
2023-05-05T04:04:52.830Z,95371.00
2023-05-05T04:05:52.848Z,95371.00
2023-05-05T04:06:52.851Z,95369.00
2023-05-05T04:07:52.857Z,95373.00
2023-05-05T04:08:52.872Z,95373.00
2023-05-05T04:09:52.876Z,95371.00
2023-05-05T04:10:52.842Z,95371.00
2023-05-05T04:11:52.838Z,95371.00
2023-05-05T04:12:52.896Z,95371.00
2023-05-05T04:13:52.834Z,95371.00
2023-05-05T04:14:52.848Z,95373.00
2023-05-05T04:15:52.886Z,95373.00
2023-05-05T04:16:52.825Z,95373.00
2023-05-05T04:17:52.857Z,95373.00
2023-05-05T04:18:52.824Z,95373.00
2023-05-05T04:19:52.847Z,95371.00
2023-05-05T04:20:52.804Z,95373.00
2023-05-05T04:21:52.818Z,95375.00
2023-05-05T04:22:52.931Z,95375.00
2023-05-05T04:23:52.851Z,95375.00
2023-05-05T04:24:52.788Z,95375.00
2023-05-05T04:25:52.815Z,95375.00
2023-05-05T04:26:52.779Z,95377.00
2023-05-05T04:27:52.799Z,95373.00
2023-05-05T04:28:52.791Z,95375.00
2023-05-05T04:29:52.765Z,95377.00
2023-05-05T04:30:52.886Z,95377.00
2023-05-05T04:31:52.732Z,95379.00
2023-05-05T04:32:52.849Z,95379.00
2023-05-05T04:33:52.771Z,95381.00
2023-05-05T04:34:52.757Z,95379.00
2023-05-05T04:35:52.730Z,95381.00
2023-05-05T04:36:52.752Z,95383.00
2023-05-05T04:37:52.750Z,95383.00
2023-05-05T04:38:52.766Z,95385.00
2023-05-05T04:39:52.726Z,95385.00
2023-05-05T04:40:52.743Z,95387.00
2023-05-05T04:41:52.754Z,95387.00
2023-05-05T04:42:52.754Z,95389.00
2023-05-05T04:43:52.723Z,95387.00
2023-05-05T04:44:52.731Z,95387.00
2023-05-05T04:45:52.804Z,95389.00
2023-05-05T04:46:52.809Z,95389.00
2023-05-05T04:47:52.791Z,95390.00
2023-05-05T04:48:52.750Z,95389.00
2023-05-05T04:49:52.728Z,95389.00
2023-05-05T04:50:52.742Z,95389.00
2023-05-05T04:51:52.761Z,95394.00
2023-05-05T04:52:52.902Z,95394.00
2023-05-05T04:53:52.766Z,95394.00
2023-05-05T04:54:52.734Z,95404.00
2023-05-05T04:55:52.753Z,95396.00
2023-05-05T04:56:52.754Z,95396.00
2023-05-05T04:57:52.787Z,95404.00
2023-05-05T04:58:52.765Z,95404.00
2023-05-05T04:59:52.774Z,95408.00
2023-05-05T05:00:52.805Z,95410.00
2023-05-05T05:01:52.805Z,95408.00
2023-05-05T05:02:52.890Z,95410.00
2023-05-05T05:03:52.871Z,95410.00
2023-05-05T05:04:52.834Z,95412.00
2023-05-05T05:05:52.807Z,95412.00
2023-05-05T05:06:52.853Z,95412.00
2023-05-05T05:07:52.851Z,95416.00
2023-05-05T05:08:52.856Z,95414.00
2023-05-05T05:09:52.907Z,95416.00
2023-05-05T05:10:52.879Z,95418.00
2023-05-05T05:11:52.911Z,95416.00
2023-05-05T05:12:52.949Z,95420.00
2023-05-05T05:13:52.903Z,95416.00
2023-05-05T05:14:52.939Z,95416.00
2023-05-05T05:15:52.954Z,95416.00
2023-05-05T05:16:53.064Z,95420.00
2023-05-05T05:17:53.060Z,95414.00
2023-05-05T05:18:53.043Z,95412.00
2023-05-05T05:19:53.035Z,95412.00
2023-05-05T05:20:53.034Z,95410.00
2023-05-05T05:21:53.101Z,95412.00
2023-05-05T05:22:53.090Z,95412.00
2023-05-05T05:23:53.126Z,95414.00
2023-05-05T05:24:53.119Z,95416.00
2023-05-05T05:25:53.153Z,95414.00
2023-05-05T05:26:53.149Z,95416.00
2023-05-05T05:28:08.421Z,95418.00
2023-05-05T05:28:54.360Z,95414.00
2023-05-05T05:29:53.214Z,95418.00
2023-05-05T05:30:53.154Z,95414.00
2023-05-05T05:31:53.192Z,95416.00
2023-05-05T05:32:53.236Z,95416.00
2023-05-05T05:33:53.366Z,95416.00
2023-05-05T05:34:53.151Z,95414.00
2023-05-05T05:35:53.156Z,95416.00
2023-05-05T05:36:53.102Z,95414.00
2023-05-05T05:37:53.170Z,95414.00
2023-05-05T05:38:53.120Z,95418.00
2023-05-05T05:39:53.199Z,95416.00
2023-05-05T05:40:53.076Z,95418.00
2023-05-05T05:41:53.192Z,95420.00
2023-05-05T05:42:53.098Z,95422.00
2023-05-05T05:43:53.100Z,95420.00
2023-05-05T05:44:53.460Z,95422.00
2023-05-05T05:45:53.152Z,95422.00
2023-05-05T05:46:53.073Z,95418.00
2023-05-05T05:47:53.087Z,95410.00
2023-05-05T05:48:53.060Z,95412.00
2023-05-05T05:49:53.087Z,95420.00
2023-05-05T05:50:53.078Z,95420.00
2023-05-05T05:51:53.083Z,95424.00
2023-05-05T05:52:53.094Z,95420.00
2023-05-05T05:53:53.165Z,95424.00
2023-05-05T05:54:53.128Z,95420.00
2023-05-05T05:55:53.107Z,95426.00
2023-05-05T05:56:53.174Z,95422.00
2023-05-05T05:57:53.143Z,95420.00
2023-05-05T05:58:53.173Z,95422.00
2023-05-05T05:59:53.123Z,95422.00
2023-05-05T06:00:53.115Z,95422.00
2023-05-05T06:01:53.105Z,95422.00
2023-05-05T06:02:53.188Z,95416.00
2023-05-05T06:03:53.460Z,95422.00
2023-05-05T06:04:53.091Z,95428.00
2023-05-05T06:05:53.144Z,95428.00
2023-05-05T06:06:53.113Z,95424.00
2023-05-05T06:07:53.093Z,95426.00
2023-05-05T06:08:53.381Z,95422.00
2023-05-05T06:09:53.176Z,95422.00
2023-05-05T06:10:53.236Z,95416.00
2023-05-05T06:11:53.253Z,95416.00
2023-05-05T06:12:53.240Z,95416.00
2023-05-05T06:13:53.211Z,95418.00
2023-05-05T06:14:53.246Z,95418.00
2023-05-05T06:15:53.231Z,95418.00
2023-05-05T06:16:53.212Z,95418.00
2023-05-05T06:17:53.273Z,95416.00
2023-05-05T06:18:53.245Z,95416.00
2023-05-05T06:19:54.521Z,95412.00
2023-05-05T06:20:53.226Z,95412.00
2023-05-05T06:21:53.214Z,95412.00
2023-05-05T06:22:53.224Z,95412.00
2023-05-05T06:23:53.362Z,95410.00
2023-05-05T06:24:53.215Z,95412.00
2023-05-05T06:25:53.242Z,95408.00
2023-05-05T06:26:53.247Z,95406.00
2023-05-05T06:27:53.302Z,95408.00
2023-05-05T06:28:53.376Z,95404.00
2023-05-05T06:29:53.360Z,95406.00
2023-05-05T06:30:53.348Z,95406.00
2023-05-05T06:31:53.443Z,95408.00
2023-05-05T06:32:53.525Z,95410.00
2023-05-05T06:33:53.942Z,95406.00
2023-05-05T06:34:53.547Z,95394.00
2023-05-05T06:35:53.563Z,95392.00
2023-05-05T06:36:53.656Z,95392.00
2023-05-05T06:37:53.689Z,95394.00
2023-05-05T06:38:53.893Z,95390.00
2023-05-05T06:39:53.796Z,95390.00
2023-05-05T06:40:53.817Z,95390.00
2023-05-05T06:41:53.823Z,95387.00
2023-05-05T06:42:53.884Z,95387.00
2023-05-05T06:43:53.910Z,95385.00
2023-05-05T06:44:53.942Z,95383.00
2023-05-05T06:45:53.980Z,95383.00
2023-05-05T06:46:54.063Z,95381.00
2023-05-05T06:47:54.035Z,95379.00
2023-05-05T06:48:54.017Z,95379.00
2023-05-05T06:49:54.018Z,95375.00
2023-05-05T06:50:54.008Z,95375.00
2023-05-05T06:51:54.158Z,95371.00
2023-05-05T06:52:54.055Z,95371.00
2023-05-05T06:53:54.051Z,95373.00
2023-05-05T06:54:54.065Z,95375.00
2023-05-05T06:55:54.067Z,95375.00
2023-05-05T06:56:54.117Z,95377.00
2023-05-05T06:57:54.103Z,95379.00
2023-05-05T06:58:54.138Z,95377.00
2023-05-05T06:59:54.151Z,95377.00
2023-05-05T07:00:54.215Z,95377.00
2023-05-05T07:01:54.103Z,95377.00
2023-05-05T07:02:54.211Z,95375.00
2023-05-05T07:03:54.461Z,95375.00
2023-05-05T07:04:54.122Z,95377.00
2023-05-05T07:05:54.134Z,95373.00
2023-05-05T07:06:54.104Z,95373.00
2023-05-05T07:07:54.195Z,95371.00
2023-05-05T07:08:54.142Z,95369.00
2023-05-05T07:09:54.179Z,95369.00
2023-05-05T07:10:54.190Z,95371.00
2023-05-05T07:11:54.174Z,95369.00
2023-05-05T07:12:54.257Z,95369.00
2023-05-05T07:13:54.241Z,95367.00
2023-05-05T07:14:54.273Z,95367.00
2023-05-05T07:15:54.278Z,95365.00
2023-05-05T07:16:54.343Z,95363.00
2023-05-05T07:17:54.507Z,95361.00
2023-05-05T07:18:54.387Z,95357.00
2023-05-05T07:19:54.307Z,95357.00
2023-05-05T07:20:54.514Z,95357.00
2023-05-05T07:21:54.398Z,95353.00
2023-05-05T07:22:54.354Z,95353.00
2023-05-05T07:23:54.450Z,95351.00
2023-05-05T07:24:54.376Z,95353.00
2023-05-05T07:25:54.431Z,95351.00
2023-05-05T07:26:54.435Z,95349.00
2023-05-05T07:27:54.536Z,95351.00
2023-05-05T07:28:54.563Z,95347.00
2023-05-05T07:29:54.606Z,95351.00
2023-05-05T07:30:54.640Z,95347.00
2023-05-05T07:31:54.739Z,95349.00
2023-05-05T07:32:55.076Z,95347.00
2023-05-05T07:33:54.800Z,95349.00
2023-05-05T07:34:54.848Z,95345.00
2023-05-05T07:35:54.917Z,95345.00
2023-05-05T07:36:54.904Z,95345.00
2023-05-05T07:37:54.953Z,95338.00
2023-05-05T07:38:55.042Z,95343.00
2023-05-05T07:39:55.138Z,95340.00
2023-05-05T07:40:55.168Z,95340.00
2023-05-05T07:41:55.201Z,95336.00
2023-05-05T07:42:55.273Z,95336.00
2023-05-05T07:43:55.320Z,95336.00
2023-05-05T07:44:55.379Z,95336.00
2023-05-05T07:45:55.464Z,95334.00
2023-05-05T07:46:55.488Z,95330.00
2023-05-05T07:47:55.639Z,95328.00
2023-05-05T07:48:55.641Z,95324.00
2023-05-05T07:49:55.659Z,95322.00
2023-05-05T07:50:55.688Z,95320.00
2023-05-05T07:51:55.737Z,95318.00
2023-05-05T07:53:02.378Z,95318.00
2023-05-05T07:53:56.797Z,95314.00
2023-05-05T07:54:55.819Z,95312.00
2023-05-05T07:55:55.874Z,95310.00
2023-05-05T07:56:55.761Z,95310.00
2023-05-05T07:57:55.784Z,95310.00
2023-05-05T07:58:55.926Z,95310.00
2023-05-05T07:59:55.784Z,95308.00
2023-05-05T08:00:55.734Z,95306.00
2023-05-05T08:01:55.727Z,95308.00
2023-05-05T08:02:55.872Z,95306.00
2023-05-05T08:03:55.963Z,95308.00
2023-05-05T08:04:55.898Z,95306.00
2023-05-05T08:05:55.973Z,95308.00
2023-05-05T08:06:56.003Z,95306.00
2023-05-05T08:07:56.088Z,95306.00
2023-05-05T08:08:56.127Z,95308.00
2023-05-05T08:09:56.204Z,95308.00
2023-05-05T08:10:56.249Z,95306.00
2023-05-05T08:11:56.375Z,95302.00
2023-05-05T08:12:56.332Z,95302.00
2023-05-05T08:13:56.292Z,95298.00
2023-05-05T08:14:56.312Z,95300.00
2023-05-05T08:15:56.355Z,95300.00
2023-05-05T08:16:56.358Z,95300.00
2023-05-05T08:17:56.448Z,95295.00
2023-05-05T08:18:56.506Z,95295.00
2023-05-05T08:19:56.506Z,95295.00
2023-05-05T08:20:56.538Z,95295.00
2023-05-05T08:21:56.577Z,95291.00
2023-05-05T08:22:56.572Z,95291.00
2023-05-05T08:23:56.620Z,95287.00
2023-05-05T08:24:56.631Z,95291.00
2023-05-05T08:25:56.653Z,95285.00
2023-05-05T08:26:56.757Z,95285.00
2023-05-05T08:27:56.902Z,95287.00
2023-05-05T08:28:56.850Z,95285.00
2023-05-05T08:29:56.865Z,95283.00
2023-05-05T08:30:56.877Z,95283.00
2023-05-05T08:31:57.005Z,95283.00
2023-05-05T08:32:57.000Z,95275.00
2023-05-05T08:33:57.028Z,95275.00
2023-05-05T08:34:57.052Z,95275.00
2023-05-05T08:35:57.031Z,95273.00
2023-05-05T08:36:57.037Z,95269.00
2023-05-05T08:37:59.079Z,95269.00
2023-05-05T08:38:57.119Z,95267.00
2023-05-05T08:39:57.941Z,95265.00
2023-05-05T08:40:57.204Z,95263.00
2023-05-05T08:41:57.229Z,95263.00
2023-05-05T08:42:57.280Z,95261.00
2023-05-05T08:43:57.380Z,95259.00
2023-05-05T08:44:58.918Z,95259.00
2023-05-05T08:45:57.364Z,95259.00
2023-05-05T08:46:57.421Z,95253.00
2023-05-05T08:47:57.492Z,95255.00
2023-05-05T08:48:57.538Z,95249.00
2023-05-05T08:49:57.571Z,95249.00
2023-05-05T08:50:59.860Z,95249.00
2023-05-05T08:51:57.517Z,95247.00
2023-05-05T08:52:57.556Z,95247.00
2023-05-05T08:53:57.602Z,95245.00
2023-05-05T08:54:57.503Z,95247.00
2023-05-05T08:55:57.540Z,95245.00
2023-05-05T08:56:57.472Z,95247.00
2023-05-05T08:57:57.567Z,95245.00
2023-05-05T08:58:57.487Z,95245.00
2023-05-05T08:59:57.637Z,95244.00
2023-05-05T09:00:57.531Z,95242.00
2023-05-05T09:01:57.496Z,95242.00
2023-05-05T09:02:57.612Z,95240.00
2023-05-05T09:03:57.435Z,95238.00
2023-05-05T09:04:57.996Z,95238.00
2023-05-05T09:05:57.399Z,95238.00
2023-05-05T09:06:57.415Z,95234.00
2023-05-05T09:07:57.435Z,95230.00
2023-05-05T09:08:59.520Z,95232.00
2023-05-05T09:09:57.407Z,95232.00
2023-05-05T09:10:57.411Z,95234.00
2023-05-05T09:11:57.361Z,95234.00
2023-05-05T09:12:57.447Z,95230.00
2023-05-05T09:13:57.506Z,95230.00
2023-05-05T09:14:59.395Z,95228.00
2023-05-05T09:15:57.598Z,95226.00
2023-05-05T09:16:57.703Z,95224.00
2023-05-05T09:17:57.665Z,95222.00
2023-05-05T09:18:57.686Z,95218.00
2023-05-05T09:19:58.014Z,95220.00
2023-05-05T09:20:59.468Z,95218.00
2023-05-05T09:21:57.779Z,95218.00
2023-05-05T09:22:57.814Z,95214.00
2023-05-05T09:24:00.370Z,95214.00
2023-05-05T09:24:58.860Z,95212.00
2023-05-05T09:25:57.864Z,95208.00
2023-05-05T09:26:59.122Z,95210.00
2023-05-05T09:27:57.891Z,95204.00
2023-05-05T09:28:57.842Z,95208.00
2023-05-05T09:29:57.958Z,95204.00
2023-05-05T09:30:57.916Z,95204.00
2023-05-05T09:31:57.985Z,95200.00
2023-05-05T09:32:57.856Z,95200.00
2023-05-05T09:33:57.802Z,95198.00
2023-05-05T09:34:57.989Z,95198.00
2023-05-05T09:35:57.755Z,95194.00
2023-05-05T09:36:57.762Z,95194.00
2023-05-05T09:37:57.807Z,95193.00
2023-05-05T09:38:58.853Z,95193.00
2023-05-05T09:39:57.763Z,95191.00
2023-05-05T09:40:57.774Z,95193.00
2023-05-05T09:41:57.753Z,95191.00
2023-05-05T09:42:57.715Z,95187.00
2023-05-05T09:43:57.705Z,95185.00
2023-05-05T09:44:59.737Z,95183.00
2023-05-05T09:45:57.753Z,95183.00
2023-05-05T09:46:57.741Z,95181.00
2023-05-05T09:48:00.153Z,95187.00
2023-05-05T09:48:57.793Z,95177.00
2023-05-05T09:49:58.014Z,95183.00
2023-05-05T09:50:57.773Z,95183.00
2023-05-05T09:51:57.737Z,95183.00
2023-05-05T09:52:57.730Z,95181.00
2023-05-05T09:53:57.712Z,95177.00
2023-05-05T09:54:57.691Z,95177.00
2023-05-05T09:55:57.694Z,95177.00
2023-05-05T09:56:57.699Z,95175.00
2023-05-05T09:57:57.724Z,95177.00
2023-05-05T09:58:58.720Z,95173.00
2023-05-05T09:59:57.665Z,95173.00
2023-05-05T10:00:57.689Z,95173.00
2023-05-05T10:01:57.704Z,95171.00
2023-05-05T10:02:57.719Z,95171.00
2023-05-05T10:03:57.743Z,95169.00
2023-05-05T10:04:57.861Z,95169.00
2023-05-05T10:05:57.660Z,95167.00
2023-05-05T10:06:57.606Z,95165.00
2023-05-05T10:07:57.603Z,95167.00
2023-05-05T10:08:57.616Z,95167.00
2023-05-05T10:09:57.593Z,95165.00
2023-05-05T10:10:57.611Z,95165.00
2023-05-05T10:11:57.559Z,95161.00
2023-05-05T10:12:57.578Z,95163.00
2023-05-05T10:13:57.593Z,95161.00
2023-05-05T10:14:57.563Z,95159.00
2023-05-05T10:15:57.718Z,95155.00
2023-05-05T10:16:57.570Z,95155.00
2023-05-05T10:18:05.768Z,95149.00
2023-05-05T10:18:58.530Z,95149.00
2023-05-05T10:19:58.054Z,95147.00
2023-05-05T10:20:57.518Z,95140.00
2023-05-05T10:21:57.517Z,95134.00
2023-05-05T10:22:57.498Z,95134.00
2023-05-05T10:23:57.462Z,95132.00
2023-05-05T10:24:57.530Z,95130.00
2023-05-05T10:25:57.475Z,95130.00
2023-05-05T10:26:57.540Z,95134.00
2023-05-05T10:27:57.583Z,95128.00
2023-05-05T10:28:57.622Z,95128.00
2023-05-05T10:29:57.983Z,95124.00
2023-05-05T10:30:57.702Z,95126.00
2023-05-05T10:31:57.763Z,95124.00
2023-05-05T10:33:12.358Z,95120.00
2023-05-05T10:33:58.941Z,95118.00
2023-05-05T10:34:57.985Z,95114.00
2023-05-05T10:35:57.850Z,95114.00
2023-05-05T10:36:57.777Z,95112.00
2023-05-05T10:37:57.755Z,95108.00
2023-05-05T10:38:57.810Z,95104.00
2023-05-05T10:39:57.971Z,95104.00
2023-05-05T10:40:57.743Z,95098.00
2023-05-05T10:41:57.768Z,95098.00
2023-05-05T10:42:57.830Z,95091.00
2023-05-05T10:43:58.019Z,95094.00
2023-05-05T10:44:57.987Z,95089.00
2023-05-05T10:45:58.153Z,95094.00
2023-05-05T10:46:58.121Z,95093.00
2023-05-05T10:47:58.201Z,95091.00
2023-05-05T10:48:58.233Z,95091.00
2023-05-05T10:49:58.544Z,95091.00
2023-05-05T10:50:58.322Z,95089.00
2023-05-05T10:51:58.334Z,95085.00
2023-05-05T10:52:58.386Z,95079.00
2023-05-05T10:53:58.438Z,95079.00
2023-05-05T10:54:58.352Z,95079.00
2023-05-05T10:55:58.397Z,95075.00
2023-05-05T10:56:58.399Z,95073.00
2023-05-05T10:57:58.376Z,95069.00
2023-05-05T10:59:00.089Z,95071.00
2023-05-05T10:59:58.536Z,95067.00
2023-05-05T11:00:58.441Z,95067.00
2023-05-05T11:01:58.384Z,95067.00
2023-05-05T11:02:58.440Z,95063.00
2023-05-05T11:03:58.432Z,95061.00
2023-05-05T11:04:58.347Z,95061.00
2023-05-05T11:05:58.407Z,95059.00
2023-05-05T11:06:58.408Z,95057.00
2023-05-05T11:07:58.437Z,95055.00
2023-05-05T11:08:58.392Z,95053.00
2023-05-05T11:09:58.519Z,95051.00
2023-05-05T11:10:58.366Z,95049.00
2023-05-05T11:11:58.371Z,95044.00
2023-05-05T11:12:59.016Z,95040.00
2023-05-05T11:13:58.396Z,95036.00
2023-05-05T11:14:58.495Z,95036.00
2023-05-05T11:15:58.392Z,95038.00
2023-05-05T11:16:58.408Z,95036.00
2023-05-05T11:17:58.467Z,95034.00
2023-05-05T11:18:58.394Z,95032.00
2023-05-05T11:19:58.497Z,95028.00
2023-05-05T11:20:58.434Z,95028.00
2023-05-05T11:21:58.436Z,95024.00
2023-05-05T11:22:58.448Z,95020.00
2023-05-05T11:23:58.468Z,95018.00
2023-05-05T11:24:58.455Z,95018.00
2023-05-05T11:25:58.507Z,95016.00
2023-05-05T11:26:58.485Z,95016.00
2023-05-05T11:27:58.530Z,95016.00
2023-05-05T11:28:58.548Z,95014.00
2023-05-05T11:29:59.019Z,95012.00
2023-05-05T11:30:59.046Z,95012.00
2023-05-05T11:31:58.630Z,95010.00
2023-05-05T11:32:58.587Z,95008.00
2023-05-05T11:33:58.586Z,95006.00
2023-05-05T11:34:58.611Z,95006.00
2023-05-05T11:35:58.609Z,94997.00
2023-05-05T11:36:58.655Z,95000.00
2023-05-05T11:37:58.631Z,95000.00
2023-05-05T11:38:58.702Z,94995.00
2023-05-05T11:39:58.719Z,94999.00
2023-05-05T11:40:58.693Z,94997.00
2023-05-05T11:41:58.703Z,94995.00
2023-05-05T11:42:58.701Z,94991.00
2023-05-05T11:43:58.717Z,94993.00
2023-05-05T11:44:58.707Z,94989.00